sensor_id;sensor_type;location;lat;lon;timestamp;P1;durP1;ratioP1;P2;durP2;ratioP2
68386;SDS011;55338;43.062;25.624;2023-05-07T00:00:29;7.95;;;4.47;;
68386;SDS011;55338;43.062;25.624;2023-05-07T00:02:55;9.47;;;4.40;;
68386;SDS011;55338;43.062;25.624;2023-05-07T00:05:20;11.27;;;4.47;;
68386;SDS011;55338;43.062;25.624;2023-05-07T00:07:46;7.87;;;4.50;;
68386;SDS011;55338;43.062;25.624;2023-05-07T00:10:12;7.13;;;4.25;;
68386;SDS011;55338;43.062;25.624;2023-05-07T00:12:38;7.40;;;4.30;;
68386;SDS011;55338;43.062;25.624;2023-05-07T00:15:04;8.03;;;4.27;;
68386;SDS011;55338;43.062;25.624;2023-05-07T00:17:31;6.70;;;3.95;;
68386;SDS011;55338;43.062;25.624;2023-05-07T00:19:57;7.97;;;4.47;;
68386;SDS011;55338;43.062;25.624;2023-05-07T00:22:23;9.90;;;4.40;;
68386;SDS011;55338;43.062;25.624;2023-05-07T00:24:49;12.73;;;4.35;;
68386;SDS011;55338;43.062;25.624;2023-05-07T00:27:15;12.98;;;4.68;;
68386;SDS011;55338;43.062;25.624;2023-05-07T00:29:42;10.03;;;4.60;;
68386;SDS011;55338;43.062;25.624;2023-05-07T00:32:08;10.25;;;4.55;;
68386;SDS011;55338;43.062;25.624;2023-05-07T00:34:33;9.33;;;4.40;;
68386;SDS011;55338;43.062;25.624;2023-05-07T00:37:00;9.02;;;4.85;;
68386;SDS011;55338;43.062;25.624;2023-05-07T00:39:26;7.70;;;4.10;;
68386;SDS011;55338;43.062;25.624;2023-05-07T00:41:52;10.60;;;3.90;;
68386;SDS011;55338;43.062;25.624;2023-05-07T00:44:18;9.77;;;4.78;;
68386;SDS011;55338;43.062;25.624;2023-05-07T00:46:43;7.77;;;3.83;;
68386;SDS011;55338;43.062;25.624;2023-05-07T00:49:10;6.75;;;4.10;;
68386;SDS011;55338;43.062;25.624;2023-05-07T00:51:36;8.10;;;4.18;;
68386;SDS011;55338;43.062;25.624;2023-05-07T00:54:02;8.48;;;4.55;;
68386;SDS011;55338;43.062;25.624;2023-05-07T00:56:28;9.17;;;5.00;;
68386;SDS011;55338;43.062;25.624;2023-05-07T00:58:54;6.85;;;4.22;;
68386;SDS011;55338;43.062;25.624;2023-05-07T01:01:20;8.75;;;4.63;;
68386;SDS011;55338;43.062;25.624;2023-05-07T01:03:46;10.17;;;5.33;;
68386;SDS011;55338;43.062;25.624;2023-05-07T01:06:12;10.13;;;5.32;;
68386;SDS011;55338;43.062;25.624;2023-05-07T01:08:41;10.23;;;5.38;;
68386;SDS011;55338;43.062;25.624;2023-05-07T01:11:08;17.20;;;5.50;;
68386;SDS011;55338;43.062;25.624;2023-05-07T01:13:35;16.23;;;5.82;;
68386;SDS011;55338;43.062;25.624;2023-05-07T01:16:02;10.98;;;5.30;;
68386;SDS011;55338;43.062;25.624;2023-05-07T01:18:28;17.73;;;6.00;;
68386;SDS011;55338;43.062;25.624;2023-05-07T01:20:55;19.45;;;6.07;;
68386;SDS011;55338;43.062;25.624;2023-05-07T01:23:24;13.50;;;6.10;;
68386;SDS011;55338;43.062;25.624;2023-05-07T01:25:51;14.15;;;6.10;;
68386;SDS011;55338;43.062;25.624;2023-05-07T01:28:18;15.02;;;6.63;;
68386;SDS011;55338;43.062;25.624;2023-05-07T01:30:44;18.23;;;6.80;;
68386;SDS011;55338;43.062;25.624;2023-05-07T01:33:15;16.45;;;6.90;;
68386;SDS011;55338;43.062;25.624;2023-05-07T01:35:47;22.30;;;6.20;;
68386;SDS011;55338;43.062;25.624;2023-05-07T01:38:15;19.58;;;6.20;;
68386;SDS011;55338;43.062;25.624;2023-05-07T01:40:43;14.63;;;6.13;;
68386;SDS011;55338;43.062;25.624;2023-05-07T01:43:09;15.85;;;6.05;;
68386;SDS011;55338;43.062;25.624;2023-05-07T01:45:35;14.67;;;6.50;;
68386;SDS011;55338;43.062;25.624;2023-05-07T01:48:05;11.77;;;5.40;;
68386;SDS011;55338;43.062;25.624;2023-05-07T01:50:32;14.27;;;6.50;;
68386;SDS011;55338;43.062;25.624;2023-05-07T01:52:58;13.18;;;6.75;;
68386;SDS011;55338;43.062;25.624;2023-05-07T01:55:24;16.73;;;6.22;;
68386;SDS011;55338;43.062;25.624;2023-05-07T01:57:50;12.23;;;6.20;;
68386;SDS011;55338;43.062;25.624;2023-05-07T02:00:16;17.15;;;6.35;;
68386;SDS011;55338;43.062;25.624;2023-05-07T02:02:42;17.53;;;6.10;;
68386;SDS011;55338;43.062;25.624;2023-05-07T02:05:09;17.15;;;6.32;;
68386;SDS011;55338;43.062;25.624;2023-05-07T02:07:35;18.15;;;6.07;;
68386;SDS011;55338;43.062;25.624;2023-05-07T02:10:00;18.53;;;6.57;;
68386;SDS011;55338;43.062;25.624;2023-05-07T02:12:26;14.00;;;5.97;;
68386;SDS011;55338;43.062;25.624;2023-05-07T02:14:52;19.40;;;7.03;;
68386;SDS011;55338;43.062;25.624;2023-05-07T02:17:18;53.25;;;8.40;;
68386;SDS011;55338;43.062;25.624;2023-05-07T02:19:43;30.77;;;7.27;;
68386;SDS011;55338;43.062;25.624;2023-05-07T02:22:09;41.17;;;7.65;;
68386;SDS011;55338;43.062;25.624;2023-05-07T02:24:35;78.40;;;11.07;;
68386;SDS011;55338;43.062;25.624;2023-05-07T02:27:01;38.47;;;9.13;;
68386;SDS011;55338;43.062;25.624;2023-05-07T02:29:28;29.33;;;7.63;;
68386;SDS011;55338;43.062;25.624;2023-05-07T02:31:54;35.20;;;8.13;;
68386;SDS011;55338;43.062;25.624;2023-05-07T02:34:20;23.83;;;7.85;;
68386;SDS011;55338;43.062;25.624;2023-05-07T02:36:47;17.17;;;6.63;;
68386;SDS011;55338;43.062;25.624;2023-05-07T02:39:13;22.37;;;6.60;;
68386;SDS011;55338;43.062;25.624;2023-05-07T02:41:39;25.38;;;7.28;;
68386;SDS011;55338;43.062;25.624;2023-05-07T02:44:04;29.67;;;7.72;;
68386;SDS011;55338;43.062;25.624;2023-05-07T02:46:31;30.38;;;8.02;;
68386;SDS011;55338;43.062;25.624;2023-05-07T02:48:56;28.98;;;8.75;;
68386;SDS011;55338;43.062;25.624;2023-05-07T02:51:22;61.50;;;11.25;;
68386;SDS011;55338;43.062;25.624;2023-05-07T02:53:48;67.47;;;11.50;;
68386;SDS011;55338;43.062;25.624;2023-05-07T02:56:14;85.03;;;10.38;;
68386;SDS011;55338;43.062;25.624;2023-05-07T02:58:40;23.95;;;7.90;;
68386;SDS011;55338;43.062;25.624;2023-05-07T03:01:07;73.40;;;8.48;;
68386;SDS011;55338;43.062;25.624;2023-05-07T03:03:33;28.63;;;8.03;;
68386;SDS011;55338;43.062;25.624;2023-05-07T03:05:59;40.58;;;9.82;;
68386;SDS011;55338;43.062;25.624;2023-05-07T03:08:31;24.13;;;7.50;;
68386;SDS011;55338;43.062;25.624;2023-05-07T03:10:57;34.08;;;9.02;;
68386;SDS011;55338;43.062;25.624;2023-05-07T03:13:23;39.57;;;8.43;;
68386;SDS011;55338;43.062;25.624;2023-05-07T03:15:49;31.95;;;7.80;;
68386;SDS011;55338;43.062;25.624;2023-05-07T03:18:15;29.92;;;9.20;;
68386;SDS011;55338;43.062;25.624;2023-05-07T03:20:40;33.70;;;8.32;;
68386;SDS011;55338;43.062;25.624;2023-05-07T03:23:06;21.83;;;7.10;;
68386;SDS011;55338;43.062;25.624;2023-05-07T03:25:32;18.88;;;7.18;;
68386;SDS011;55338;43.062;25.624;2023-05-07T03:27:58;28.08;;;7.43;;
68386;SDS011;55338;43.062;25.624;2023-05-07T03:30:24;17.38;;;7.22;;
68386;SDS011;55338;43.062;25.624;2023-05-07T03:32:50;21.00;;;7.10;;
68386;SDS011;55338;43.062;25.624;2023-05-07T03:35:16;16.08;;;6.00;;
68386;SDS011;55338;43.062;25.624;2023-05-07T03:37:41;15.90;;;5.97;;
68386;SDS011;55338;43.062;25.624;2023-05-07T03:40:08;12.52;;;6.03;;
68386;SDS011;55338;43.062;25.624;2023-05-07T03:42:35;17.08;;;6.55;;
68386;SDS011;55338;43.062;25.624;2023-05-07T03:45:01;16.03;;;6.23;;
68386;SDS011;55338;43.062;25.624;2023-05-07T03:47:27;16.67;;;6.22;;
68386;SDS011;55338;43.062;25.624;2023-05-07T03:49:52;19.43;;;7.03;;
68386;SDS011;55338;43.062;25.624;2023-05-07T03:52:19;20.50;;;7.03;;
68386;SDS011;55338;43.062;25.624;2023-05-07T03:54:49;24.42;;;7.35;;
68386;SDS011;55338;43.062;25.624;2023-05-07T03:57:15;28.90;;;8.80;;
68386;SDS011;55338;43.062;25.624;2023-05-07T03:59:41;18.70;;;7.13;;
68386;SDS011;55338;43.062;25.624;2023-05-07T04:02:06;29.52;;;8.77;;
68386;SDS011;55338;43.062;25.624;2023-05-07T04:04:32;33.87;;;8.97;;
68386;SDS011;55338;43.062;25.624;2023-05-07T04:06:58;45.20;;;9.57;;
68386;SDS011;55338;43.062;25.624;2023-05-07T04:09:25;35.60;;;7.60;;
68386;SDS011;55338;43.062;25.624;2023-05-07T04:11:53;34.38;;;7.65;;
68386;SDS011;55338;43.062;25.624;2023-05-07T04:14:18;30.52;;;8.80;;
68386;SDS011;55338;43.062;25.624;2023-05-07T04:16:44;21.63;;;7.87;;
68386;SDS011;55338;43.062;25.624;2023-05-07T04:19:10;36.58;;;7.45;;
68386;SDS011;55338;43.062;25.624;2023-05-07T04:21:36;23.70;;;7.50;;
68386;SDS011;55338;43.062;25.624;2023-05-07T04:24:02;24.48;;;7.80;;
68386;SDS011;55338;43.062;25.624;2023-05-07T04:26:28;26.67;;;7.63;;
68386;SDS011;55338;43.062;25.624;2023-05-07T04:28:55;21.73;;;8.20;;
68386;SDS011;55338;43.062;25.624;2023-05-07T04:31:21;17.77;;;8.27;;
68386;SDS011;55338;43.062;25.624;2023-05-07T04:33:47;21.35;;;7.43;;
68386;SDS011;55338;43.062;25.624;2023-05-07T04:36:13;19.90;;;7.93;;
68386;SDS011;55338;43.062;25.624;2023-05-07T04:38:39;28.88;;;9.82;;
68386;SDS011;55338;43.062;25.624;2023-05-07T04:41:05;25.67;;;8.63;;
68386;SDS011;55338;43.062;25.624;2023-05-07T04:43:35;19.07;;;8.37;;
68386;SDS011;55338;43.062;25.624;2023-05-07T04:46:01;21.77;;;9.60;;
68386;SDS011;55338;43.062;25.624;2023-05-07T04:48:27;31.23;;;9.43;;
68386;SDS011;55338;43.062;25.624;2023-05-07T04:50:53;34.97;;;10.80;;
68386;SDS011;55338;43.062;25.624;2023-05-07T04:53:19;34.30;;;9.82;;
68386;SDS011;55338;43.062;25.624;2023-05-07T04:55:48;40.95;;;11.63;;
68386;SDS011;55338;43.062;25.624;2023-05-07T04:58:20;33.00;;;10.70;;
68386;SDS011;55338;43.062;25.624;2023-05-07T05:00:45;31.27;;;9.88;;
68386;SDS011;55338;43.062;25.624;2023-05-07T05:03:11;31.52;;;10.57;;
68386;SDS011;55338;43.062;25.624;2023-05-07T05:05:37;34.25;;;11.68;;
68386;SDS011;55338;43.062;25.624;2023-05-07T05:08:03;38.13;;;13.15;;
68386;SDS011;55338;43.062;25.624;2023-05-07T05:10:28;52.47;;;14.43;;
68386;SDS011;55338;43.062;25.624;2023-05-07T05:12:54;60.42;;;19.15;;
68386;SDS011;55338;43.062;25.624;2023-05-07T05:15:21;56.50;;;19.80;;
68386;SDS011;55338;43.062;25.624;2023-05-07T05:17:47;101.72;;;29.00;;
68386;SDS011;55338;43.062;25.624;2023-05-07T05:20:12;75.03;;;26.10;;
68386;SDS011;55338;43.062;25.624;2023-05-07T05:22:39;54.35;;;22.27;;
68386;SDS011;55338;43.062;25.624;2023-05-07T05:25:05;50.40;;;21.05;;
68386;SDS011;55338;43.062;25.624;2023-05-07T05:27:31;47.97;;;18.95;;
68386;SDS011;55338;43.062;25.624;2023-05-07T05:29:57;49.73;;;19.27;;
68386;SDS011;55338;43.062;25.624;2023-05-07T05:32:23;45.20;;;19.33;;
68386;SDS011;55338;43.062;25.624;2023-05-07T05:34:48;48.20;;;18.57;;
68386;SDS011;55338;43.062;25.624;2023-05-07T05:37:14;39.05;;;18.17;;
68386;SDS011;55338;43.062;25.624;2023-05-07T05:39:40;37.08;;;16.58;;
68386;SDS011;55338;43.062;25.624;2023-05-07T05:42:06;55.03;;;22.20;;
68386;SDS011;55338;43.062;25.624;2023-05-07T05:44:32;43.33;;;20.90;;
68386;SDS011;55338;43.062;25.624;2023-05-07T05:46:58;42.05;;;19.35;;
68386;SDS011;55338;43.062;25.624;2023-05-07T05:49:24;38.00;;;20.17;;
68386;SDS011;55338;43.062;25.624;2023-05-07T05:51:50;34.17;;;17.88;;
68386;SDS011;55338;43.062;25.624;2023-05-07T05:54:16;31.20;;;16.48;;
68386;SDS011;55338;43.062;25.624;2023-05-07T05:56:42;29.98;;;15.88;;
68386;SDS011;55338;43.062;25.624;2023-05-07T05:59:08;29.80;;;16.05;;
68386;SDS011;55338;43.062;25.624;2023-05-07T06:01:34;24.27;;;12.53;;
68386;SDS011;55338;43.062;25.624;2023-05-07T06:03:59;21.90;;;12.65;;
68386;SDS011;55338;43.062;25.624;2023-05-07T06:06:25;25.60;;;13.80;;
68386;SDS011;55338;43.062;25.624;2023-05-07T06:08:51;27.42;;;13.05;;
68386;SDS011;55338;43.062;25.624;2023-05-07T06:11:16;22.42;;;11.75;;
68386;SDS011;55338;43.062;25.624;2023-05-07T06:13:42;22.33;;;13.57;;
68386;SDS011;55338;43.062;25.624;2023-05-07T06:16:08;25.85;;;14.80;;
68386;SDS011;55338;43.062;25.624;2023-05-07T06:18:39;25.53;;;13.93;;
68386;SDS011;55338;43.062;25.624;2023-05-07T06:21:05;31.58;;;14.23;;
68386;SDS011;55338;43.062;25.624;2023-05-07T06:23:31;23.63;;;13.13;;
68386;SDS011;55338;43.062;25.624;2023-05-07T06:25:56;25.35;;;12.15;;
68386;SDS011;55338;43.062;25.624;2023-05-07T06:28:22;21.17;;;11.20;;
68386;SDS011;55338;43.062;25.624;2023-05-07T06:30:48;20.02;;;10.98;;
68386;SDS011;55338;43.062;25.624;2023-05-07T06:33:15;18.75;;;10.35;;
68386;SDS011;55338;43.062;25.624;2023-05-07T06:35:41;14.40;;;7.43;;
68386;SDS011;55338;43.062;25.624;2023-05-07T06:38:07;13.33;;;6.77;;
68386;SDS011;55338;43.062;25.624;2023-05-07T06:40:32;12.32;;;7.30;;
68386;SDS011;55338;43.062;25.624;2023-05-07T06:42:58;10.07;;;6.10;;
68386;SDS011;55338;43.062;25.624;2023-05-07T06:45:24;10.85;;;6.25;;
68386;SDS011;55338;43.062;25.624;2023-05-07T06:47:50;10.07;;;5.25;;
68386;SDS011;55338;43.062;25.624;2023-05-07T06:50:19;10.67;;;4.70;;
68386;SDS011;55338;43.062;25.624;2023-05-07T06:52:46;10.38;;;6.10;;
68386;SDS011;55338;43.062;25.624;2023-05-07T06:55:11;9.13;;;4.40;;
68386;SDS011;55338;43.062;25.624;2023-05-07T06:57:37;10.30;;;5.40;;
68386;SDS011;55338;43.062;25.624;2023-05-07T07:00:04;10.02;;;4.80;;
68386;SDS011;55338;43.062;25.624;2023-05-07T07:02:33;9.45;;;5.30;;
68386;SDS011;55338;43.062;25.624;2023-05-07T07:04:59;11.98;;;5.50;;
68386;SDS011;55338;43.062;25.624;2023-05-07T07:07:25;11.07;;;4.87;;
68386;SDS011;55338;43.062;25.624;2023-05-07T07:09:51;7.93;;;4.90;;
68386;SDS011;55338;43.062;25.624;2023-05-07T07:12:16;11.20;;;4.67;;
68386;SDS011;55338;43.062;25.624;2023-05-07T07:14:42;6.67;;;3.80;;
68386;SDS011;55338;43.062;25.624;2023-05-07T07:17:08;6.70;;;3.90;;
68386;SDS011;55338;43.062;25.624;2023-05-07T07:19:33;8.53;;;4.80;;
68386;SDS011;55338;43.062;25.624;2023-05-07T07:22:02;8.13;;;4.97;;
68386;SDS011;55338;43.062;25.624;2023-05-07T07:24:28;8.13;;;5.10;;
68386;SDS011;55338;43.062;25.624;2023-05-07T07:26:54;5.67;;;3.70;;
68386;SDS011;55338;43.062;25.624;2023-05-07T07:29:20;10.93;;;4.70;;
68386;SDS011;55338;43.062;25.624;2023-05-07T07:31:46;5.88;;;3.83;;
68386;SDS011;55338;43.062;25.624;2023-05-07T07:34:15;9.93;;;3.67;;
68386;SDS011;55338;43.062;25.624;2023-05-07T07:36:41;5.43;;;3.88;;
68386;SDS011;55338;43.062;25.624;2023-05-07T07:39:07;10.32;;;3.80;;
68386;SDS011;55338;43.062;25.624;2023-05-07T07:41:33;6.13;;;2.20;;
68386;SDS011;55338;43.062;25.624;2023-05-07T07:43:59;6.70;;;2.60;;
68386;SDS011;55338;43.062;25.624;2023-05-07T07:46:24;3.97;;;2.30;;
68386;SDS011;55338;43.062;25.624;2023-05-07T07:48:51;4.17;;;1.97;;
68386;SDS011;55338;43.062;25.624;2023-05-07T07:51:28;8.50;;;2.63;;
68386;SDS011;55338;43.062;25.624;2023-05-07T07:53:55;5.13;;;2.70;;
68386;SDS011;55338;43.062;25.624;2023-05-07T07:56:22;4.30;;;2.17;;
68386;SDS011;55338;43.062;25.624;2023-05-07T07:58:49;7.97;;;2.75;;
68386;SDS011;55338;43.062;25.624;2023-05-07T08:01:14;4.00;;;2.33;;
68386;SDS011;55338;43.062;25.624;2023-05-07T08:03:41;5.65;;;2.17;;
68386;SDS011;55338;43.062;25.624;2023-05-07T08:06:07;5.15;;;2.17;;
68386;SDS011;55338;43.062;25.624;2023-05-07T08:08:33;3.57;;;2.10;;
68386;SDS011;55338;43.062;25.624;2023-05-07T08:10:58;10.82;;;2.42;;
68386;SDS011;55338;43.062;25.624;2023-05-07T08:13:24;3.20;;;2.03;;
68386;SDS011;55338;43.062;25.624;2023-05-07T08:15:50;6.00;;;2.05;;
68386;SDS011;55338;43.062;25.624;2023-05-07T08:18:16;4.57;;;1.60;;
68386;SDS011;55338;43.062;25.624;2023-05-07T08:20:41;2.60;;;1.50;;
68386;SDS011;55338;43.062;25.624;2023-05-07T08:23:07;2.80;;;1.80;;
68386;SDS011;55338;43.062;25.624;2023-05-07T08:26:05;3.45;;;1.55;;
68386;SDS011;55338;43.062;25.624;2023-05-07T08:29:05;4.57;;;1.67;;
68386;SDS011;55338;43.062;25.624;2023-05-07T08:31:31;3.70;;;1.77;;
68386;SDS011;55338;43.062;25.624;2023-05-07T08:33:57;4.20;;;2.00;;
68386;SDS011;55338;43.062;25.624;2023-05-07T08:36:23;2.53;;;1.40;;
68386;SDS011;55338;43.062;25.624;2023-05-07T08:38:50;5.22;;;1.48;;
68386;SDS011;55338;43.062;25.624;2023-05-07T08:41:17;3.70;;;1.40;;
68386;SDS011;55338;43.062;25.624;2023-05-07T08:43:45;4.23;;;1.87;;
68386;SDS011;55338;43.062;25.624;2023-05-07T08:46:21;3.00;;;1.50;;
68386;SDS011;55338;43.062;25.624;2023-05-07T08:48:48;3.92;;;1.90;;
68386;SDS011;55338;43.062;25.624;2023-05-07T08:51:16;3.72;;;2.00;;
68386;SDS011;55338;43.062;25.624;2023-05-07T08:53:44;3.05;;;1.85;;
68386;SDS011;55338;43.062;25.624;2023-05-07T08:56:43;3.13;;;1.70;;
68386;SDS011;55338;43.062;25.624;2023-05-07T08:59:15;3.78;;;1.73;;
68386;SDS011;55338;43.062;25.624;2023-05-07T09:01:40;5.43;;;1.60;;
68386;SDS011;55338;43.062;25.624;2023-05-07T09:04:06;3.53;;;1.73;;
68386;SDS011;55338;43.062;25.624;2023-05-07T09:06:32;3.35;;;1.63;;
68386;SDS011;55338;43.062;25.624;2023-05-07T09:08:58;3.08;;;1.50;;
68386;SDS011;55338;43.062;25.624;2023-05-07T09:11:26;3.87;;;1.77;;
68386;SDS011;55338;43.062;25.624;2023-05-07T09:13:55;5.25;;;2.22;;
68386;SDS011;55338;43.062;25.624;2023-05-07T09:16:23;3.88;;;1.80;;
68386;SDS011;55338;43.062;25.624;2023-05-07T09:18:52;2.58;;;1.50;;
68386;SDS011;55338;43.062;25.624;2023-05-07T09:21:19;4.60;;;1.52;;
68386;SDS011;55338;43.062;25.624;2023-05-07T09:23:47;6.43;;;2.03;;
68386;SDS011;55338;43.062;25.624;2023-05-07T09:26:49;3.78;;;1.58;;
68386;SDS011;55338;43.062;25.624;2023-05-07T09:29:19;3.00;;;1.70;;
68386;SDS011;55338;43.062;25.624;2023-05-07T09:31:44;2.85;;;1.52;;
68386;SDS011;55338;43.062;25.624;2023-05-07T09:34:10;3.47;;;1.73;;
68386;SDS011;55338;43.062;25.624;2023-05-07T09:36:36;2.80;;;1.60;;
68386;SDS011;55338;43.062;25.624;2023-05-07T09:39:02;3.27;;;1.80;;
68386;SDS011;55338;43.062;25.624;2023-05-07T09:41:29;3.08;;;1.70;;
68386;SDS011;55338;43.062;25.624;2023-05-07T09:43:57;4.40;;;2.20;;
68386;SDS011;55338;43.062;25.624;2023-05-07T09:46:30;3.88;;;1.85;;
68386;SDS011;55338;43.062;25.624;2023-05-07T09:48:57;5.03;;;2.00;;
68386;SDS011;55338;43.062;25.624;2023-05-07T09:51:25;3.58;;;1.98;;
68386;SDS011;55338;43.062;25.624;2023-05-07T09:53:56;7.50;;;2.00;;
68386;SDS011;55338;43.062;25.624;2023-05-07T09:56:25;4.40;;;2.20;;
68386;SDS011;55338;43.062;25.624;2023-05-07T09:58:52;4.03;;;2.10;;
68386;SDS011;55338;43.062;25.624;2023-05-07T10:01:21;3.53;;;2.07;;
68386;SDS011;55338;43.062;25.624;2023-05-07T10:03:47;4.63;;;2.22;;
68386;SDS011;55338;43.062;25.624;2023-05-07T10:06:15;9.82;;;2.15;;
68386;SDS011;55338;43.062;25.624;2023-05-07T10:08:42;3.80;;;1.85;;
68386;SDS011;55338;43.062;25.624;2023-05-07T10:11:09;4.68;;;2.40;;
68386;SDS011;55338;43.062;25.624;2023-05-07T10:13:35;5.57;;;2.50;;
68386;SDS011;55338;43.062;25.624;2023-05-07T10:16:05;4.95;;;2.20;;
68386;SDS011;55338;43.062;25.624;2023-05-07T10:18:35;3.22;;;1.90;;
68386;SDS011;55338;43.062;25.624;2023-05-07T10:21:37;3.78;;;2.28;;
68386;SDS011;55338;43.062;25.624;2023-05-07T10:24:03;6.78;;;2.03;;
68386;SDS011;55338;43.062;25.624;2023-05-07T10:26:32;4.03;;;1.80;;
68386;SDS011;55338;43.062;25.624;2023-05-07T10:29:02;3.33;;;2.03;;
68386;SDS011;55338;43.062;25.624;2023-05-07T10:34:07;3.75;;;1.95;;
68386;SDS011;55338;43.062;25.624;2023-05-07T10:36:39;3.75;;;2.20;;
68386;SDS011;55338;43.062;25.624;2023-05-07T10:39:05;5.83;;;1.97;;
68386;SDS011;55338;43.062;25.624;2023-05-07T10:41:31;4.15;;;2.30;;
68386;SDS011;55338;43.062;25.624;2023-05-07T10:43:57;3.85;;;2.00;;
68386;SDS011;55338;43.062;25.624;2023-05-07T10:46:26;4.32;;;2.30;;
68386;SDS011;55338;43.062;25.624;2023-05-07T10:51:28;4.50;;;2.17;;
68386;SDS011;55338;43.062;25.624;2023-05-07T10:56:48;4.68;;;2.80;;
68386;SDS011;55338;43.062;25.624;2023-05-07T11:01:53;3.33;;;1.97;;
68386;SDS011;55338;43.062;25.624;2023-05-07T11:04:20;5.47;;;2.25;;
68386;SDS011;55338;43.062;25.624;2023-05-07T11:13:02;3.72;;;2.40;;
68386;SDS011;55338;43.062;25.624;2023-05-07T11:15:06;3.70;;;2.33;;
68386;SDS011;55338;43.062;25.624;2023-05-07T11:17:34;3.75;;;2.40;;
68386;SDS011;55338;43.062;25.624;2023-05-07T11:20:16;8.93;;;2.55;;
68386;SDS011;55338;43.062;25.624;2023-05-07T11:22:42;3.78;;;2.20;;
68386;SDS011;55338;43.062;25.624;2023-05-07T11:25:08;3.87;;;2.27;;
68386;SDS011;55338;43.062;25.624;2023-05-07T11:27:36;3.90;;;2.10;;
68386;SDS011;55338;43.062;25.624;2023-05-07T11:30:02;5.45;;;2.28;;
68386;SDS011;55338;43.062;25.624;2023-05-07T11:32:29;4.55;;;2.30;;
68386;SDS011;55338;43.062;25.624;2023-05-07T11:34:57;3.45;;;2.22;;
68386;SDS011;55338;43.062;25.624;2023-05-07T11:37:24;4.10;;;2.07;;
68386;SDS011;55338;43.062;25.624;2023-05-07T11:39:52;3.90;;;2.55;;
68386;SDS011;55338;43.062;25.624;2023-05-07T11:42:35;3.65;;;2.35;;
68386;SDS011;55338;43.062;25.624;2023-05-07T11:45:02;3.75;;;2.22;;
68386;SDS011;55338;43.062;25.624;2023-05-07T11:47:29;5.03;;;2.75;;
68386;SDS011;55338;43.062;25.624;2023-05-07T11:49:56;3.67;;;2.53;;
68386;SDS011;55338;43.062;25.624;2023-05-07T11:52:22;3.58;;;2.67;;
68386;SDS011;55338;43.062;25.624;2023-05-07T11:54:52;3.85;;;2.20;;
68386;SDS011;55338;43.062;25.624;2023-05-07T11:57:20;5.03;;;2.80;;
68386;SDS011;55338;43.062;25.624;2023-05-07T12:00:19;3.97;;;2.63;;
68386;SDS011;55338;43.062;25.624;2023-05-07T12:03:17;4.50;;;2.37;;
68386;SDS011;55338;43.062;25.624;2023-05-07T12:06:17;4.43;;;2.67;;
68386;SDS011;55338;43.062;25.624;2023-05-07T12:08:45;3.40;;;2.40;;
68386;SDS011;55338;43.062;25.624;2023-05-07T12:11:23;3.47;;;2.33;;
68386;SDS011;55338;43.062;25.624;2023-05-07T12:13:50;6.28;;;2.60;;
68386;SDS011;55338;43.062;25.624;2023-05-07T12:16:17;3.73;;;2.47;;
68386;SDS011;55338;43.062;25.624;2023-05-07T12:18:43;4.07;;;2.50;;
68386;SDS011;55338;43.062;25.624;2023-05-07T12:21:10;4.65;;;2.58;;
68386;SDS011;55338;43.062;25.624;2023-05-07T12:23:36;5.35;;;2.67;;
68386;SDS011;55338;43.062;25.624;2023-05-07T12:26:03;5.00;;;2.40;;
68386;SDS011;55338;43.062;25.624;2023-05-07T12:28:30;5.00;;;2.30;;
68386;SDS011;55338;43.062;25.624;2023-05-07T12:31:04;5.78;;;2.30;;
68386;SDS011;55338;43.062;25.624;2023-05-07T12:33:30;6.03;;;2.42;;
68386;SDS011;55338;43.062;25.624;2023-05-07T12:35:57;3.38;;;2.25;;
68386;SDS011;55338;43.062;25.624;2023-05-07T12:38:23;3.25;;;2.35;;
68386;SDS011;55338;43.062;25.624;2023-05-07T12:40:50;4.43;;;2.27;;
68386;SDS011;55338;43.062;25.624;2023-05-07T12:43:26;3.65;;;2.33;;
68386;SDS011;55338;43.062;25.624;2023-05-07T12:45:54;3.58;;;2.55;;
68386;SDS011;55338;43.062;25.624;2023-05-07T12:48:22;5.55;;;2.60;;
68386;SDS011;55338;43.062;25.624;2023-05-07T12:50:55;4.25;;;2.33;;
68386;SDS011;55338;43.062;25.624;2023-05-07T12:53:23;4.80;;;2.40;;
68386;SDS011;55338;43.062;25.624;2023-05-07T12:55:53;4.43;;;2.50;;
68386;SDS011;55338;43.062;25.624;2023-05-07T12:58:30;4.15;;;2.78;;
68386;SDS011;55338;43.062;25.624;2023-05-07T13:00:59;4.10;;;2.20;;
68386;SDS011;55338;43.062;25.624;2023-05-07T13:04:05;4.63;;;2.40;;
68386;SDS011;55338;43.062;25.624;2023-05-07T13:06:30;5.90;;;2.63;;
68386;SDS011;55338;43.062;25.624;2023-05-07T13:08:56;5.07;;;2.78;;
68386;SDS011;55338;43.062;25.624;2023-05-07T13:11:22;4.27;;;3.03;;
68386;SDS011;55338;43.062;25.624;2023-05-07T13:13:48;7.07;;;2.97;;
68386;SDS011;55338;43.062;25.624;2023-05-07T13:16:13;4.13;;;2.73;;
68386;SDS011;55338;43.062;25.624;2023-05-07T13:18:39;6.35;;;2.92;;
68386;SDS011;55338;43.062;25.624;2023-05-07T13:21:05;3.85;;;2.28;;
68386;SDS011;55338;43.062;25.624;2023-05-07T13:23:31;4.10;;;2.63;;
68386;SDS011;55338;43.062;25.624;2023-05-07T13:25:57;4.75;;;2.45;;
68386;SDS011;55338;43.062;25.624;2023-05-07T13:28:23;4.27;;;2.67;;
68386;SDS011;55338;43.062;25.624;2023-05-07T13:30:50;8.80;;;3.13;;
68386;SDS011;55338;43.062;25.624;2023-05-07T13:33:17;3.58;;;2.28;;
68386;SDS011;55338;43.062;25.624;2023-05-07T13:35:47;3.92;;;2.72;;
68386;SDS011;55338;43.062;25.624;2023-05-07T13:38:13;4.23;;;2.43;;
68386;SDS011;55338;43.062;25.624;2023-05-07T13:40:40;4.85;;;2.58;;
68386;SDS011;55338;43.062;25.624;2023-05-07T13:43:06;5.67;;;2.90;;
68386;SDS011;55338;43.062;25.624;2023-05-07T13:45:33;4.97;;;2.60;;
68386;SDS011;55338;43.062;25.624;2023-05-07T13:47:58;3.88;;;2.65;;
68386;SDS011;55338;43.062;25.624;2023-05-07T13:50:24;4.23;;;2.70;;
68386;SDS011;55338;43.062;25.624;2023-05-07T13:52:51;3.92;;;2.90;;
68386;SDS011;55338;43.062;25.624;2023-05-07T13:55:18;4.93;;;2.90;;
68386;SDS011;55338;43.062;25.624;2023-05-07T13:57:44;5.30;;;2.70;;
68386;SDS011;55338;43.062;25.624;2023-05-07T14:00:11;4.63;;;2.75;;
68386;SDS011;55338;43.062;25.624;2023-05-07T14:02:38;5.30;;;2.53;;
68386;SDS011;55338;43.062;25.624;2023-05-07T14:05:04;4.65;;;2.35;;
68386;SDS011;55338;43.062;25.624;2023-05-07T14:07:37;4.18;;;2.22;;
68386;SDS011;55338;43.062;25.624;2023-05-07T14:10:03;4.50;;;2.23;;
68386;SDS011;55338;43.062;25.624;2023-05-07T14:12:29;3.28;;;2.15;;
68386;SDS011;55338;43.062;25.624;2023-05-07T14:14:55;3.83;;;2.27;;
68386;SDS011;55338;43.062;25.624;2023-05-07T14:17:21;3.63;;;2.57;;
68386;SDS011;55338;43.062;25.624;2023-05-07T14:19:50;3.78;;;2.70;;
68386;SDS011;55338;43.062;25.624;2023-05-07T14:22:15;3.40;;;2.30;;
68386;SDS011;55338;43.062;25.624;2023-05-07T14:24:41;4.03;;;2.70;;
68386;SDS011;55338;43.062;25.624;2023-05-07T14:27:07;4.53;;;2.35;;
68386;SDS011;55338;43.062;25.624;2023-05-07T14:29:33;4.67;;;2.37;;
68386;SDS011;55338;43.062;25.624;2023-05-07T14:32:00;4.75;;;2.47;;
68386;SDS011;55338;43.062;25.624;2023-05-07T14:34:27;7.10;;;2.50;;
68386;SDS011;55338;43.062;25.624;2023-05-07T14:36:52;4.43;;;2.47;;
68386;SDS011;55338;43.062;25.624;2023-05-07T14:39:50;5.85;;;2.58;;
68386;SDS011;55338;43.062;25.624;2023-05-07T14:42:48;4.95;;;2.20;;
68386;SDS011;55338;43.062;25.624;2023-05-07T14:45:16;4.35;;;2.38;;